Terminal Aerodrome Forecast
Issued by NWS

Home | Current Version | Previous Version | Text Only | Print | Product List | Glossary On
Versions: 1 2 3 4 5 6 7 8 9 10 11 12 13 14
000
FTUS41 KPBZ 232321
TAFBVI
TAF
KBVI 232321Z 2400/2424 12004KT P6SM FEW250
     FM240600 15005KT P6SM VCSH BKN100 WS020/20040KT
     FM241400 20008KT P6SM BKN060
     FM242100 22011KT P6SM BKN025
      AMD NOT SKED 2402/2412=

USA.gov is the U.S. government's official web portal to all federal, state and local government web resources and services.